createdAt,value
2023-02-22T00:01:51.271Z,100070.19
2023-02-22T00:04:21.417Z,100079.50
2023-02-22T00:06:50.849Z,100074.31
2023-02-22T00:09:21.522Z,100076.78
2023-02-22T00:11:51.275Z,100080.13
2023-02-22T00:14:21.440Z,100080.88
2023-02-22T00:16:50.669Z,100072.28
2023-02-22T00:19:19.077Z,100078.19
2023-02-22T00:21:52.959Z,100079.81
2023-02-22T00:24:24.017Z,100081.41
2023-02-22T00:26:56.585Z,100083.91
2023-02-22T00:29:26.160Z,100095.78
2023-02-22T00:31:55.003Z,100084.69
2023-02-22T00:34:24.497Z,100093.13
2023-02-22T00:36:52.870Z,100088.81
2023-02-22T00:39:21.387Z,100099.84
2023-02-22T00:41:49.838Z,100098.97
2023-02-22T00:44:19.697Z,100099.75
2023-02-22T00:46:48.190Z,100094.63
2023-02-22T00:49:16.955Z,100103.06
2023-02-22T00:51:45.339Z,100106.41
2023-02-22T00:54:14.443Z,100111.44
2023-02-22T00:56:42.807Z,100115.63
2023-02-22T00:59:11.190Z,100119.00
2023-02-22T01:01:41.108Z,100123.13
2023-02-22T01:04:09.582Z,100117.97
2023-02-22T01:06:38.226Z,100126.38
2023-02-22T01:09:07.798Z,100128.03
2023-02-22T01:11:36.185Z,100134.69
2023-02-22T01:14:04.625Z,100132.94
2023-02-22T01:16:33.346Z,100138.03
2023-02-22T01:19:03.152Z,100150.72
2023-02-22T01:21:31.494Z,100147.28
2023-02-22T01:23:59.885Z,100152.31
2023-02-22T01:26:28.227Z,100154.84
2023-02-22T01:28:56.941Z,100161.66
2023-02-22T01:31:25.473Z,100160.00
2023-02-22T01:33:53.863Z,100165.94
2023-02-22T01:36:23.782Z,100173.66
2023-02-22T01:38:52.120Z,100169.50
2023-02-22T01:41:20.786Z,100171.25
2023-02-22T01:43:49.267Z,100170.47
2023-02-22T01:46:24.719Z,100167.94
2023-02-22T01:48:58.572Z,100172.25
2023-02-22T01:51:32.080Z,100168.06
2023-02-22T01:54:07.278Z,100168.06
2023-02-22T01:56:40.773Z,100171.53
2023-02-22T01:59:13.979Z,100170.66
2023-02-22T02:01:44.762Z,100177.47
2023-02-22T02:04:17.331Z,100174.03
2023-02-22T02:06:48.227Z,100175.78
2023-02-22T02:09:26.043Z,100182.56
2023-02-22T02:11:55.113Z,100183.44
2023-02-22T02:14:23.727Z,100178.31
2023-02-22T02:16:56.253Z,100182.56
2023-02-22T02:19:38.187Z,100183.44
2023-02-22T02:22:31.912Z,100192.75
2023-02-22T02:25:41.524Z,100185.06
2023-02-22T02:28:43.621Z,100190.13
2023-02-22T02:32:12.377Z,100192.53
2023-02-22T02:34:51.209Z,100193.25
2023-02-22T02:37:33.276Z,100189.72
2023-02-22T02:40:18.705Z,100199.81
2023-02-22T02:42:57.402Z,100198.91
2023-02-22T02:45:33.205Z,100201.50
2023-02-22T02:48:04.824Z,100195.53
2023-02-22T02:50:41.675Z,100198.13
2023-02-22T02:53:11.307Z,100207.47
2023-02-22T02:55:39.875Z,100207.41
2023-02-22T02:58:09.656Z,100207.41
2023-02-22T03:00:42.208Z,100221.88
2023-02-22T03:03:47.771Z,100216.81
2023-02-22T03:07:04.138Z,100211.00
2023-02-22T03:09:54.799Z,100215.28
2023-02-22T03:12:44.806Z,100218.75
2023-02-22T03:15:28.480Z,100223.91
2023-02-22T03:18:07.342Z,100223.91
2023-02-22T03:20:46.410Z,100224.75
2023-02-22T03:23:25.895Z,100232.38
2023-02-22T03:26:02.515Z,100235.84
2023-02-22T03:28:33.806Z,100240.94
2023-02-22T03:31:07.146Z,100242.63
2023-02-22T03:33:40.692Z,100246.03
2023-02-22T03:36:17.227Z,100241.81
2023-02-22T03:38:48.670Z,100251.16
2023-02-22T03:41:24.103Z,100251.19
2023-02-22T03:43:57.242Z,100243.56
2023-02-22T03:46:26.976Z,100251.19
2023-02-22T03:49:01.208Z,100253.69
2023-02-22T03:51:29.980Z,100252.81
2023-02-22T03:54:00.343Z,100255.38
2023-02-22T03:56:35.933Z,100258.78
2023-02-22T03:59:06.481Z,100263.09
2023-02-22T04:01:35.746Z,100263.84
2023-02-22T04:04:04.413Z,100266.41
2023-02-22T04:06:33.339Z,100272.34
2023-02-22T04:09:03.657Z,100260.31
2023-02-22T04:11:32.363Z,100272.28
2023-02-22T04:14:01.291Z,100280.00
2023-02-22T04:16:30.282Z,100281.69
2023-02-22T04:18:58.944Z,100274.06
2023-02-22T04:21:27.358Z,100285.94
2023-02-22T04:23:55.744Z,100290.81
2023-02-22T04:26:25.706Z,100295.59
2023-02-22T04:28:54.242Z,100286.84
2023-02-22T04:31:22.659Z,100296.88
2023-02-22T04:33:51.061Z,100296.75
2023-02-22T04:36:19.612Z,100304.25
2023-02-22T04:38:47.989Z,100303.28
2023-02-22T04:41:18.489Z,100303.13
2023-02-22T04:43:48.489Z,100305.56
2023-02-22T04:46:17.610Z,100304.63
2023-02-22T04:48:46.078Z,100312.22
2023-02-22T04:51:14.524Z,100298.63
2023-02-22T04:53:42.940Z,100306.19
2023-02-22T04:56:11.364Z,100302.75
2023-02-22T04:58:39.773Z,100312.03
2023-02-22T05:01:09.520Z,100307.69
2023-02-22T05:03:39.414Z,100305.97
2023-02-22T05:06:08.592Z,100309.34
2023-02-22T05:08:37.179Z,100311.06
2023-02-22T05:11:06.256Z,100317.78
2023-02-22T05:13:34.638Z,100314.38
2023-02-22T05:16:03.985Z,100319.44
2023-02-22T05:18:33.790Z,100320.31
2023-02-22T05:21:02.142Z,100320.41
2023-02-22T05:23:30.555Z,100321.41
2023-02-22T05:25:58.998Z,100324.00
2023-02-22T05:28:27.536Z,100326.59
2023-02-22T05:30:55.929Z,100328.28
2023-02-22T05:33:24.345Z,100335.09
2023-02-22T05:35:56.096Z,100333.44
2023-02-22T05:38:24.474Z,100333.50
2023-02-22T05:40:52.877Z,100345.41
2023-02-22T05:43:21.328Z,100349.66
2023-02-22T05:48:18.106Z,100340.34
2023-02-22T05:50:46.472Z,100347.13
2023-02-22T05:53:16.161Z,100354.78
2023-02-22T05:55:46.415Z,100358.22
2023-02-22T05:58:15.644Z,100353.06
2023-02-22T06:00:47.392Z,100362.38
2023-02-22T06:03:21.479Z,100362.28
2023-02-22T06:05:50.039Z,100370.00
2023-02-22T06:08:20.015Z,100367.50
2023-02-22T06:10:48.718Z,100374.28
2023-02-22T06:13:18.743Z,100378.59
2023-02-22T06:15:47.628Z,100380.41
2023-02-22T06:18:16.407Z,100381.31
2023-02-22T06:20:44.809Z,100385.59
2023-02-22T06:23:13.287Z,100390.81
2023-02-22T06:25:43.011Z,100395.09
2023-02-22T06:28:11.574Z,100401.06
2023-02-22T06:30:43.154Z,100397.72
2023-02-22T06:33:12.451Z,100401.19
2023-02-22T06:35:40.852Z,100408.88
2023-02-22T06:38:09.245Z,100408.88
2023-02-22T06:40:37.832Z,100418.38
2023-02-22T06:43:07.641Z,100414.97
2023-02-22T06:45:36.015Z,100423.53
2023-02-22T06:48:04.632Z,100428.66
2023-02-22T06:50:35.869Z,100426.09
2023-02-22T06:53:04.776Z,100431.19
2023-02-22T06:55:35.534Z,100430.44
2023-02-22T06:58:07.023Z,100432.19
2023-02-22T07:00:35.639Z,100430.59
2023-02-22T07:03:06.195Z,100431.38
2023-02-22T07:05:34.735Z,100432.22
2023-02-22T07:08:07.489Z,100436.38
2023-02-22T07:10:38.122Z,100441.38
2023-02-22T07:13:09.135Z,100445.59
2023-02-22T07:15:37.668Z,100448.06
2023-02-22T07:18:07.598Z,100450.53
2023-02-22T07:20:36.570Z,100446.41
2023-02-22T07:23:05.479Z,100451.56
2023-02-22T07:25:34.010Z,100444.03
2023-02-22T07:28:02.469Z,100443.22
2023-02-22T07:30:34.384Z,100451.75
2023-02-22T07:33:04.764Z,100442.47
2023-02-22T07:35:37.048Z,100443.34
2023-02-22T07:38:08.144Z,100446.81
2023-02-22T07:40:37.581Z,100446.81
2023-02-22T07:43:15.441Z,100445.09
2023-02-22T07:45:46.187Z,100449.34
2023-02-22T07:48:17.610Z,100445.03
2023-02-22T07:50:46.991Z,100444.25
2023-02-22T07:53:19.399Z,100451.09
2023-02-22T07:55:50.938Z,100453.81
2023-02-22T07:58:21.692Z,100448.09
2023-02-22T08:00:51.801Z,100444.75
2023-02-22T08:03:24.124Z,100445.72
2023-02-22T08:05:55.842Z,100445.06
2023-02-22T08:08:24.931Z,100451.19
2023-02-22T08:10:54.078Z,100442.00
2023-02-22T08:13:23.481Z,100446.41
2023-02-22T08:15:56.205Z,100453.44
2023-02-22T08:18:26.609Z,100450.91
2023-02-22T08:20:56.587Z,100457.78
2023-02-22T08:23:27.399Z,100457.78
2023-02-22T08:25:56.645Z,100460.47
2023-02-22T08:28:26.333Z,100461.50
2023-02-22T08:30:56.456Z,100467.47
2023-02-22T08:33:25.090Z,100466.66
2023-02-22T08:35:53.817Z,100462.50
2023-02-22T08:38:25.461Z,100471.09
2023-02-22T08:40:54.171Z,100466.06
2023-02-22T08:43:23.829Z,100475.56
2023-02-22T08:45:53.559Z,100474.78
2023-02-22T08:48:24.283Z,100474.00
2023-02-22T08:50:53.966Z,100478.34
2023-02-22T08:53:22.726Z,100480.91
2023-02-22T08:55:51.408Z,100485.16
2023-02-22T08:58:21.195Z,100478.25
2023-02-22T09:00:49.696Z,100487.56
2023-02-22T09:03:18.220Z,100486.84
2023-02-22T09:05:48.274Z,100489.59
2023-02-22T09:08:18.400Z,100495.72
2023-02-22T09:10:47.065Z,100489.81
2023-02-22T09:13:15.431Z,100497.38
2023-02-22T09:15:43.988Z,100492.94
2023-02-22T09:18:18.173Z,100491.09
2023-02-22T09:20:48.077Z,100495.41
2023-02-22T09:23:16.638Z,100494.44
2023-02-22T09:25:45.134Z,100490.06
2023-02-22T09:28:13.830Z,100494.09
2023-02-22T09:30:43.262Z,100496.44
2023-02-22T09:33:14.879Z,100496.22
2023-02-22T09:35:46.506Z,100501.16
2023-02-22T09:38:19.879Z,100503.56
2023-02-22T09:40:52.009Z,100506.88
2023-02-22T09:43:33.830Z,100511.84
2023-02-22T09:46:24.430Z,100504.19
2023-02-22T09:49:06.507Z,100508.38
2023-02-22T09:51:42.446Z,100497.28
2023-02-22T09:54:22.612Z,100502.34
2023-02-22T09:56:57.737Z,100510.75
2023-02-22T09:59:32.149Z,100522.69
2023-02-22T10:02:15.374Z,100520.06
2023-02-22T10:04:50.535Z,100528.56
2023-02-22T10:07:29.620Z,100523.38
2023-02-22T10:10:06.656Z,100525.09
2023-02-22T10:12:45.441Z,100532.91
2023-02-22T10:15:52.885Z,100535.44
2023-02-22T10:18:51.461Z,100544.53
2023-02-22T10:21:43.911Z,100537.66
2023-02-22T10:24:27.188Z,100545.16
2023-02-22T10:26:59.729Z,100536.50
2023-02-22T10:29:39.750Z,100557.56
2023-02-22T10:32:22.995Z,100550.69
2023-02-22T10:34:54.168Z,100548.84
2023-02-22T10:37:28.095Z,100547.72
2023-02-22T10:40:06.359Z,100556.97
2023-02-22T10:42:36.242Z,100558.50
2023-02-22T10:45:05.110Z,100558.34
2023-02-22T10:47:34.980Z,100565.81
2023-02-22T10:50:04.813Z,100569.09
2023-02-22T10:52:35.839Z,100563.19
2023-02-22T10:55:15.564Z,100563.19
2023-02-22T10:57:50.207Z,100564.75
2023-02-22T11:00:26.444Z,100564.47
2023-02-22T11:02:58.362Z,100560.84
2023-02-22T11:05:36.785Z,100558.13
2023-02-22T11:08:29.477Z,100552.16
2023-02-22T11:11:02.414Z,100553.91
2023-02-22T11:13:35.178Z,100553.97
2023-02-22T11:16:20.072Z,100553.31
2023-02-22T11:18:49.420Z,100550.03
2023-02-22T11:21:25.578Z,100549.38
2023-02-22T11:24:04.148Z,100549.72
2023-02-22T11:26:42.736Z,100555.22
2023-02-22T11:29:23.905Z,100553.78
2023-02-22T11:31:53.373Z,100558.09
2023-02-22T11:34:36.501Z,100561.50
2023-02-22T11:37:32.658Z,100556.53
2023-02-22T11:40:17.855Z,100559.53
2023-02-22T11:42:47.198Z,100550.44
2023-02-22T11:45:21.444Z,100564.41
2023-02-22T11:47:53.776Z,100552.78
2023-02-22T11:50:35.178Z,100545.41
2023-02-22T11:53:27.824Z,100551.50
2023-02-22T11:56:16.146Z,100557.38
2023-02-22T11:58:51.054Z,100550.59
2023-02-22T12:01:32.788Z,100558.25
2023-02-22T12:04:51.593Z,100554.06
2023-02-22T12:07:38.250Z,100548.13
2023-02-22T12:10:21.247Z,100549.06
2023-02-22T12:13:12.131Z,100548.38
2023-02-22T12:15:48.561Z,100545.19
2023-02-22T12:18:30.035Z,100552.03
2023-02-22T12:21:02.491Z,100547.81
2023-02-22T12:23:41.679Z,100552.09
2023-02-22T12:26:17.248Z,100541.13
2023-02-22T12:28:53.150Z,100548.00
2023-02-22T12:31:29.689Z,100549.06
2023-02-22T12:34:09.529Z,100543.25
2023-02-22T12:36:46.722Z,100557.75
2023-02-22T12:39:51.804Z,100561.94
2023-02-22T12:42:31.624Z,100565.19
2023-02-22T12:45:11.082Z,100565.88
2023-02-22T12:47:49.182Z,100569.03
2023-02-22T12:50:23.492Z,100568.75
2023-02-22T12:52:58.931Z,100572.84
2023-02-22T12:55:34.280Z,100580.25
2023-02-22T12:58:15.118Z,100575.75
2023-02-22T13:00:49.692Z,100573.94
2023-02-22T13:03:36.224Z,100580.66
2023-02-22T13:06:31.550Z,100580.66
2023-02-22T13:09:15.924Z,100593.41
2023-02-22T13:11:51.644Z,100591.50
2023-02-22T13:14:43.807Z,100598.03
2023-02-22T13:17:22.332Z,100598.59
2023-02-22T13:19:58.490Z,100606.97
2023-02-22T13:22:35.886Z,100606.88
2023-02-22T13:25:11.852Z,100605.94
2023-02-22T13:27:49.748Z,100603.28
2023-02-22T13:30:23.305Z,100599.66
2023-02-22T13:33:31.246Z,100617.41
2023-02-22T13:36:23.763Z,100599.41
2023-02-22T13:39:54.706Z,100603.69
2023-02-22T13:43:02.408Z,100607.81
2023-02-22T13:46:19.342Z,100606.88
2023-02-22T13:49:19.019Z,100611.00
2023-02-22T13:51:52.746Z,100608.22
2023-02-22T13:54:30.047Z,100604.69
2023-02-22T13:56:58.930Z,100611.31
2023-02-22T13:59:36.158Z,100605.28
2023-02-22T14:02:08.072Z,100615.47
2023-02-22T14:04:42.037Z,100609.41
2023-02-22T14:07:57.064Z,100616.94
2023-02-22T14:10:51.163Z,100622.03
2023-02-22T14:13:22.644Z,100625.44
2023-02-22T14:16:22.549Z,100633.06
2023-02-22T14:19:02.362Z,100628.72
2023-02-22T14:21:30.874Z,100627.75
2023-02-22T14:24:10.888Z,100642.09
2023-02-22T14:26:42.770Z,100633.56
2023-02-22T14:29:21.383Z,100639.66
2023-02-22T14:32:07.383Z,100632.06
2023-02-22T14:34:48.810Z,100632.00
2023-02-22T14:37:22.024Z,100632.75
2023-02-22T14:39:55.047Z,100633.47
2023-02-22T14:42:34.366Z,100645.28
2023-02-22T14:45:18.273Z,100636.66
2023-02-22T14:48:01.199Z,100637.41
2023-02-22T14:50:44.191Z,100638.13
2023-02-22T14:53:25.605Z,100640.66
2023-02-22T14:56:02.616Z,100637.25
2023-02-22T14:58:45.260Z,100641.44
2023-02-22T15:01:44.359Z,100644.69
2023-02-22T15:04:23.643Z,100647.13
2023-02-22T15:06:53.289Z,100640.94
2023-02-22T15:09:27.699Z,100645.06
2023-02-22T15:12:14.382Z,100640.59
2023-02-22T15:14:47.718Z,100641.31
2023-02-22T15:17:24.965Z,100642.94
2023-02-22T15:19:55.104Z,100647.00
2023-02-22T15:22:26.275Z,100652.84
2023-02-22T15:25:02.352Z,100660.38
2023-02-22T15:27:36.835Z,100653.47
2023-02-22T15:30:27.718Z,100655.84
2023-02-22T15:33:04.504Z,100658.13
2023-02-22T15:35:34.818Z,100659.69
2023-02-22T15:38:06.226Z,100668.94
2023-02-22T15:40:35.936Z,100664.75
2023-02-22T15:43:08.979Z,100665.56
2023-02-22T15:45:43.205Z,100662.97
2023-02-22T15:48:13.104Z,100666.34
2023-02-22T15:50:59.113Z,100664.59
2023-02-22T15:53:31.844Z,100671.41
2023-02-22T15:56:04.703Z,100668.88
2023-02-22T15:58:33.326Z,100673.03
2023-02-22T16:01:07.622Z,100663.63
2023-02-22T16:03:44.889Z,100673.63
2023-02-22T16:06:19.980Z,100669.38
2023-02-22T16:08:55.476Z,100677.00
2023-02-22T16:11:31.146Z,100677.81
2023-02-22T16:14:04.990Z,100678.66
2023-02-22T16:16:41.616Z,100677.69
2023-02-22T16:19:40.744Z,100682.88
2023-02-22T16:22:28.516Z,100687.97
2023-02-22T16:25:16.424Z,100688.72
2023-02-22T16:27:48.412Z,100689.47
2023-02-22T16:30:30.028Z,100690.31
2023-02-22T16:33:00.831Z,100687.75
2023-02-22T16:35:30.385Z,100695.41
2023-02-22T16:38:02.284Z,100702.16
2023-02-22T16:40:35.661Z,100699.59
2023-02-22T16:43:08.038Z,100708.94
2023-02-22T16:45:37.041Z,100711.44
2023-02-22T16:48:22.639Z,100703.81
2023-02-22T16:50:53.107Z,100713.16
2023-02-22T16:53:24.487Z,100711.47
2023-02-22T16:55:59.016Z,100713.16
2023-02-22T16:58:28.711Z,100720.66
2023-02-22T17:00:58.363Z,100710.34
2023-02-22T17:03:28.384Z,100712.81
2023-02-22T17:05:57.001Z,100717.94
2023-02-22T17:08:25.565Z,100709.59
2023-02-22T17:10:56.782Z,100721.50
2023-02-22T17:13:28.108Z,100718.09
2023-02-22T17:15:57.152Z,100718.97
2023-02-22T17:18:30.366Z,100720.75
2023-02-22T17:20:58.802Z,100716.50
2023-02-22T17:23:27.851Z,100713.78
2023-02-22T17:25:59.209Z,100717.81
2023-02-22T17:28:28.211Z,100717.69
2023-02-22T17:31:01.701Z,100715.03
2023-02-22T17:33:34.993Z,100717.56
2023-02-22T17:36:05.624Z,100717.69
2023-02-22T17:38:34.853Z,100719.44
2023-02-22T17:41:03.756Z,100716.81
2023-02-22T17:43:32.119Z,100715.84
2023-02-22T17:46:00.710Z,100714.09
2023-02-22T17:48:29.261Z,100714.09
2023-02-22T17:50:59.454Z,100714.09
2023-02-22T17:53:27.816Z,100720.91
2023-02-22T17:55:58.204Z,100715.03
2023-02-22T17:58:30.951Z,100720.84
2023-02-22T18:00:59.725Z,100721.72
2023-02-22T18:03:28.979Z,100718.25
2023-02-22T18:06:01.657Z,100725.88
2023-02-22T18:08:32.333Z,100716.47
2023-02-22T18:11:05.421Z,100719.84
2023-02-22T18:13:33.901Z,100725.66
2023-02-22T18:16:05.063Z,100723.94
2023-02-22T18:18:34.511Z,100730.59
2023-02-22T18:21:06.508Z,100711.59
2023-02-22T18:23:35.104Z,100731.25
2023-02-22T18:26:11.441Z,100743.88
2023-02-22T18:28:41.156Z,100739.56
2023-02-22T18:31:13.578Z,100752.06
2023-02-22T18:33:42.907Z,100741.06
2023-02-22T18:36:14.288Z,100744.41
2023-02-22T18:38:44.596Z,100749.44
2023-02-22T18:41:17.633Z,100744.38
2023-02-22T18:43:47.511Z,100747.81
2023-02-22T18:46:18.950Z,100741.91
2023-02-22T18:48:49.140Z,100742.84
2023-02-22T18:51:19.211Z,100747.13
2023-02-22T18:53:49.910Z,100744.47
2023-02-22T18:56:22.229Z,100748.75
2023-02-22T18:58:54.457Z,100748.63
2023-02-22T19:01:23.650Z,100750.34
2023-02-22T19:03:52.948Z,100744.41
2023-02-22T19:06:25.021Z,100736.75
2023-02-22T19:08:53.557Z,100738.34
2023-02-22T19:11:25.712Z,100732.41
2023-02-22T19:13:57.238Z,100740.94
2023-02-22T19:16:28.239Z,100733.41
2023-02-22T19:18:58.153Z,100738.47
2023-02-22T19:21:32.504Z,100740.94
2023-02-22T19:24:00.936Z,100734.03
2023-02-22T19:26:30.219Z,100728.84
2023-02-22T19:29:04.713Z,100733.81
2023-02-22T19:31:34.670Z,100736.16
2023-02-22T19:34:08.889Z,100740.34
2023-02-22T19:36:41.122Z,100743.72
2023-02-22T19:39:10.197Z,100747.06
2023-02-22T19:41:38.798Z,100748.53
2023-02-22T19:44:09.053Z,100750.97
2023-02-22T19:46:38.330Z,100746.66
2023-02-22T19:49:08.724Z,100744.03
2023-02-22T19:51:38.652Z,100754.31
2023-02-22T19:54:12.786Z,100751.88
2023-02-22T19:56:41.303Z,100752.72
2023-02-22T19:59:13.677Z,100756.16
2023-02-22T20:01:44.800Z,100756.16
2023-02-22T20:04:18.207Z,100768.09
2023-02-22T20:06:50.628Z,100761.34
2023-02-22T20:09:23.312Z,100757.09
2023-02-22T20:11:52.949Z,100758.66
2023-02-22T20:14:24.332Z,100760.94
2023-02-22T20:16:54.972Z,100769.22
2023-02-22T20:19:24.423Z,100761.63
2023-02-22T20:21:56.011Z,100762.56
2023-02-22T20:24:25.802Z,100762.44
2023-02-22T20:26:55.921Z,100760.72
2023-02-22T20:29:29.749Z,100766.50
2023-02-22T20:31:59.817Z,100758.81
2023-02-22T20:34:31.456Z,100764.66
2023-02-22T20:37:02.416Z,100756.00
2023-02-22T20:39:31.620Z,100763.56
2023-02-22T20:42:03.101Z,100766.03
2023-02-22T20:44:32.117Z,100770.56
2023-02-22T20:47:00.644Z,100767.13
2023-02-22T20:49:29.064Z,100764.53
2023-02-22T20:51:57.396Z,100766.91
2023-02-22T20:54:30.642Z,100766.91
2023-02-22T20:56:59.269Z,100768.63
2023-02-22T20:59:29.416Z,100767.88
2023-02-22T21:01:57.938Z,100770.41
2023-02-22T21:04:26.977Z,100763.69
2023-02-22T21:06:59.297Z,100768.75
2023-02-22T21:09:29.651Z,100761.06
2023-02-22T21:12:01.819Z,100759.47
2023-02-22T21:14:32.479Z,100756.00
2023-02-22T21:17:03.928Z,100753.44
2023-02-22T21:19:33.547Z,100755.22
2023-02-22T21:22:08.538Z,100753.53
2023-02-22T21:24:41.667Z,100758.47
2023-02-22T21:27:12.387Z,100752.53
2023-02-22T21:29:40.906Z,100759.41
2023-02-22T21:32:09.736Z,100761.13
2023-02-22T21:34:39.333Z,100766.22
2023-02-22T21:37:08.582Z,100769.47
2023-02-22T21:39:38.354Z,100772.66
2023-02-22T21:42:07.463Z,100768.25
2023-02-22T21:44:35.921Z,100781.72
2023-02-22T21:47:04.340Z,100770.66
2023-02-22T21:49:32.769Z,100775.66
2023-02-22T21:52:01.173Z,100768.00
2023-02-22T21:54:29.694Z,100768.69
2023-02-22T21:57:01.358Z,100766.88
2023-02-22T21:59:29.810Z,100769.38
2023-02-22T22:01:58.254Z,100766.75
2023-02-22T22:04:29.626Z,100766.69
2023-02-22T22:07:00.167Z,100759.09
2023-02-22T22:09:36.712Z,100767.63
2023-02-22T22:12:10.177Z,100765.03
2023-02-22T22:14:40.318Z,100755.69
2023-02-22T22:17:14.733Z,100758.97
2023-02-22T22:19:44.531Z,100758.84
2023-02-22T22:22:13.447Z,100759.56
2023-02-22T22:24:45.808Z,100768.84
2023-02-22T22:27:16.610Z,100764.63
2023-02-22T22:29:45.508Z,100763.03
2023-02-22T22:32:14.046Z,100769.97
2023-02-22T22:34:43.273Z,100766.56
2023-02-22T22:37:11.612Z,100758.84
2023-02-22T22:39:43.166Z,100768.13
2023-02-22T22:42:11.830Z,100762.91
2023-02-22T22:44:44.124Z,100774.72
2023-02-22T22:47:13.760Z,100761.09
2023-02-22T22:49:42.733Z,100765.25
2023-02-22T22:52:14.092Z,100761.72
2023-02-22T22:54:43.490Z,100770.88
2023-02-22T22:57:12.750Z,100766.63
2023-02-22T22:59:43.201Z,100765.00
2023-02-22T23:02:12.092Z,100768.47
2023-02-22T23:04:40.524Z,100769.38
2023-02-22T23:07:08.965Z,100773.69
2023-02-22T23:09:38.948Z,100783.81
2023-02-22T23:12:09.731Z,100776.22
2023-02-22T23:14:44.258Z,100772.59
2023-02-22T23:17:16.292Z,100777.75
2023-02-22T23:19:46.177Z,100776.00
2023-02-22T23:22:15.490Z,100791.19
2023-02-22T23:24:45.099Z,100785.13
2023-02-22T23:27:13.538Z,100779.88
2023-02-22T23:29:46.905Z,100777.22
2023-02-22T23:32:15.631Z,100772.91
2023-02-22T23:34:44.039Z,100769.41
2023-02-22T23:37:14.154Z,100770.91
2023-02-22T23:39:43.243Z,100770.81
2023-02-22T23:42:11.647Z,100766.44
2023-02-22T23:44:40.609Z,100768.91
2023-02-22T23:47:10.788Z,100766.25
2023-02-22T23:49:43.435Z,100763.56
2023-02-22T23:52:23.905Z,100753.16
2023-02-22T23:54:53.947Z,100759.75
2023-02-22T23:57:22.444Z,100763.97
2023-02-22T23:59:51.537Z,100760.50
